Airfield :
LOGIN :

Register | Disclaimer

   EN    FR    IT 

 










Legend :    VFR   Marginal VFR   IFR   Intensive IFR   Very Intensive IFR
Visi :
Ceiling :
>= 8 km
>= 3000ft
5 to 8 km
1000 to 3000 ft
1500m to 5 km
500 to 1000 ft
800 to 1500m
200 to 500 ft
< 800m
< 200 ft
Symbols :   Thunderstorms  Fog  Heavy snow  Heavy precipitations  Wind > 20 kt
SIGMETs :     Misc.  Thunderstorms  Icing  Turbulence  Mountain Waves  Volcanic Ashes






- Airport Elevation : 25 ft
- IATA code : QCY


EGXC - RAF Coningsby

CURRENT METAR :
  • 262222Z 20007KT 1500 BR OVC001 03/03 Q1008 RMK RED

EXPIRED METARs :
  • 262150Z 19007KT 1800 -DZ OVC002 03/03 Q1009 RMK AMB
  • 262050Z 18008KT 2000 -RADZ BKN002 OVC003 03/03 Q1009 RMK AMB
  • 261950Z 18009KT 3000 -RADZ OVC003 03/03 Q1010 RMK YLO2

TAF TAF EGXC
Valid from the 26 at 21:00 until the 27 at 15:00 UTC


261946Z 2621/2715 18008KT 4000 -DZ BKN003
PROB30
TEMPO 2621/2703 1500 DZ BKN001
BECMG 2703/2705 6000 BR FEW003
PROB40 2703/2711 2000 BR
PROB30 2703/2710 0500 FG VV///
BECMG 2711/2713 9999 NSW



MET'MAP, your aeronautical weather chart ! - Copyright ORBIFLY December 2007 - Disclaimer

ORBIFLY MET'MAP TEAM :

Programming & Development : Alexandra Zaïnal
Concept & original design : Baudouin d'Aumeries
Assistance for programming : Marc-Olivier Méhu
Technical & hardware support : Manuel Goepfert

Contact : metmap@orbifly.com




SOURCES & CREDITS :

   NOAA